sensor_id;sensor_type;location;lat;lon;timestamp;P1;durP1;ratioP1;P2;durP2;ratioP2
1404;SDS011;697;51.114;6.542;2023-06-22T00:00:46;5.90;;;4.93;;
1404;SDS011;697;51.114;6.542;2023-06-22T00:03:14;6.20;;;5.70;;
1404;SDS011;697;51.114;6.542;2023-06-22T00:05:41;5.93;;;5.33;;
1404;SDS011;697;51.114;6.542;2023-06-22T00:08:08;6.73;;;6.13;;
1404;SDS011;697;51.114;6.542;2023-06-22T00:10:35;6.73;;;5.73;;
1404;SDS011;697;51.114;6.542;2023-06-22T00:13:01;6.13;;;4.80;;
1404;SDS011;697;51.114;6.542;2023-06-22T00:15:28;5.67;;;5.07;;
1404;SDS011;697;51.114;6.542;2023-06-22T00:17:57;5.33;;;4.80;;
1404;SDS011;697;51.114;6.542;2023-06-22T00:20:24;6.30;;;5.70;;
1404;SDS011;697;51.114;6.542;2023-06-22T00:22:52;7.00;;;6.40;;
1404;SDS011;697;51.114;6.542;2023-06-22T00:25:19;6.73;;;6.07;;
1404;SDS011;697;51.114;6.542;2023-06-22T00:27:46;5.90;;;5.40;;
1404;SDS011;697;51.114;6.542;2023-06-22T00:30:13;6.33;;;5.73;;
1404;SDS011;697;51.114;6.542;2023-06-22T00:32:41;7.93;;;5.60;;
1404;SDS011;697;51.114;6.542;2023-06-22T00:35:09;6.23;;;5.07;;
1404;SDS011;697;51.114;6.542;2023-06-22T00:37:36;6.80;;;5.60;;
1404;SDS011;697;51.114;6.542;2023-06-22T00:40:06;6.20;;;5.70;;
1404;SDS011;697;51.114;6.542;2023-06-22T00:42:34;6.27;;;5.67;;
1404;SDS011;697;51.114;6.542;2023-06-22T00:45:01;6.33;;;5.83;;
1404;SDS011;697;51.114;6.542;2023-06-22T00:47:28;7.03;;;6.10;;
1404;SDS011;697;51.114;6.542;2023-06-22T00:49:54;6.13;;;5.10;;
1404;SDS011;697;51.114;6.542;2023-06-22T00:52:23;5.87;;;5.40;;
1404;SDS011;697;51.114;6.542;2023-06-22T00:54:54;5.93;;;5.43;;
1404;SDS011;697;51.114;6.542;2023-06-22T00:57:21;5.90;;;5.07;;
1404;SDS011;697;51.114;6.542;2023-06-22T00:59:53;7.10;;;5.60;;
1404;SDS011;697;51.114;6.542;2023-06-22T01:02:20;6.53;;;5.93;;
1404;SDS011;697;51.114;6.542;2023-06-22T01:04:46;5.90;;;5.40;;
1404;SDS011;697;51.114;6.542;2023-06-22T01:07:15;5.97;;;5.47;;
1404;SDS011;697;51.114;6.542;2023-06-22T01:09:51;7.20;;;5.97;;
1404;SDS011;697;51.114;6.542;2023-06-22T01:12:23;6.33;;;5.73;;
1404;SDS011;697;51.114;6.542;2023-06-22T01:14:55;6.57;;;5.90;;
1404;SDS011;697;51.114;6.542;2023-06-22T01:17:28;6.20;;;5.60;;
1404;SDS011;697;51.114;6.542;2023-06-22T01:19:55;7.20;;;6.23;;
1404;SDS011;697;51.114;6.542;2023-06-22T01:22:25;6.00;;;5.33;;
1404;SDS011;697;51.114;6.542;2023-06-22T01:25:00;5.87;;;5.33;;
1404;SDS011;697;51.114;6.542;2023-06-22T01:27:36;6.57;;;5.50;;
1404;SDS011;697;51.114;6.542;2023-06-22T01:30:12;5.30;;;4.80;;
1404;SDS011;697;51.114;6.542;2023-06-22T01:32:42;6.47;;;5.60;;
1404;SDS011;697;51.114;6.542;2023-06-22T01:35:09;7.40;;;6.07;;
1404;SDS011;697;51.114;6.542;2023-06-22T01:37:38;6.70;;;5.50;;
1404;SDS011;697;51.114;6.542;2023-06-22T01:40:05;7.97;;;5.50;;
1404;SDS011;697;51.114;6.542;2023-06-22T01:42:34;6.10;;;5.50;;
1404;SDS011;697;51.114;6.542;2023-06-22T01:45:02;5.77;;;5.17;;
1404;SDS011;697;51.114;6.542;2023-06-22T01:47:32;5.33;;;4.83;;
1404;SDS011;697;51.114;6.542;2023-06-22T01:49:59;5.27;;;4.83;;
1404;SDS011;697;51.114;6.542;2023-06-22T01:52:26;6.33;;;5.50;;
1404;SDS011;697;51.114;6.542;2023-06-22T01:54:53;5.77;;;5.20;;
1404;SDS011;697;51.114;6.542;2023-06-22T01:57:22;6.13;;;5.33;;
1404;SDS011;697;51.114;6.542;2023-06-22T01:59:51;9.40;;;6.00;;
1404;SDS011;697;51.114;6.542;2023-06-22T02:02:22;5.50;;;5.00;;
1404;SDS011;697;51.114;6.542;2023-06-22T02:04:56;7.50;;;6.20;;
1404;SDS011;697;51.114;6.542;2023-06-22T02:07:28;5.87;;;5.37;;
1404;SDS011;697;51.114;6.542;2023-06-22T02:09:58;6.30;;;4.90;;
1404;SDS011;697;51.114;6.542;2023-06-22T02:12:28;6.03;;;5.43;;
1404;SDS011;697;51.114;6.542;2023-06-22T02:14:57;6.80;;;6.10;;
1404;SDS011;697;51.114;6.542;2023-06-22T02:17:25;6.60;;;5.27;;
1404;SDS011;697;51.114;6.542;2023-06-22T02:19:52;6.80;;;6.20;;
1404;SDS011;697;51.114;6.542;2023-06-22T02:22:21;6.17;;;5.33;;
1404;SDS011;697;51.114;6.542;2023-06-22T02:24:48;7.23;;;6.33;;
1404;SDS011;697;51.114;6.542;2023-06-22T02:27:15;6.00;;;5.50;;
1404;SDS011;697;51.114;6.542;2023-06-22T02:29:42;7.53;;;6.80;;
1404;SDS011;697;51.114;6.542;2023-06-22T02:32:09;7.67;;;6.67;;
1404;SDS011;697;51.114;6.542;2023-06-22T02:34:36;7.50;;;6.70;;
1404;SDS011;697;51.114;6.542;2023-06-22T02:37:03;7.17;;;6.53;;
1404;SDS011;697;51.114;6.542;2023-06-22T02:39:31;7.83;;;6.30;;
1404;SDS011;697;51.114;6.542;2023-06-22T02:41:58;6.93;;;6.30;;
1404;SDS011;697;51.114;6.542;2023-06-22T02:44:25;8.03;;;7.23;;
1404;SDS011;697;51.114;6.542;2023-06-22T02:46:51;8.47;;;6.87;;
1404;SDS011;697;51.114;6.542;2023-06-22T02:49:19;9.40;;;7.43;;
1404;SDS011;697;51.114;6.542;2023-06-22T02:51:46;9.80;;;6.53;;
1404;SDS011;697;51.114;6.542;2023-06-22T02:54:14;7.10;;;6.40;;
1404;SDS011;697;51.114;6.542;2023-06-22T02:56:42;8.57;;;6.37;;
1404;SDS011;697;51.114;6.542;2023-06-22T02:59:09;7.00;;;6.37;;
1404;SDS011;697;51.114;6.542;2023-06-22T03:01:37;7.70;;;7.00;;
1404;SDS011;697;51.114;6.542;2023-06-22T03:04:04;6.97;;;6.37;;
1404;SDS011;697;51.114;6.542;2023-06-22T03:06:31;8.93;;;7.23;;
1404;SDS011;697;51.114;6.542;2023-06-22T03:08:59;9.47;;;7.27;;
1404;SDS011;697;51.114;6.542;2023-06-22T03:11:27;8.80;;;7.37;;
1404;SDS011;697;51.114;6.542;2023-06-22T03:13:55;7.80;;;6.90;;
1404;SDS011;697;51.114;6.542;2023-06-22T03:16:21;7.73;;;6.87;;
1404;SDS011;697;51.114;6.542;2023-06-22T03:18:48;7.80;;;7.00;;
1404;SDS011;697;51.114;6.542;2023-06-22T03:21:15;7.40;;;6.53;;
1404;SDS011;697;51.114;6.542;2023-06-22T03:23:42;8.20;;;7.50;;
1404;SDS011;697;51.114;6.542;2023-06-22T03:26:09;8.30;;;7.50;;
1404;SDS011;697;51.114;6.542;2023-06-22T03:28:37;7.77;;;7.10;;
1404;SDS011;697;51.114;6.542;2023-06-22T03:31:05;8.70;;;7.80;;
1404;SDS011;697;51.114;6.542;2023-06-22T03:33:32;8.40;;;7.60;;
1404;SDS011;697;51.114;6.542;2023-06-22T03:35:59;8.33;;;7.47;;
1404;SDS011;697;51.114;6.542;2023-06-22T03:38:26;8.50;;;7.73;;
1404;SDS011;697;51.114;6.542;2023-06-22T03:40:53;8.23;;;7.43;;
1404;SDS011;697;51.114;6.542;2023-06-22T03:43:20;8.33;;;6.90;;
1404;SDS011;697;51.114;6.542;2023-06-22T03:45:47;8.30;;;7.60;;
1404;SDS011;697;51.114;6.542;2023-06-22T03:48:15;7.70;;;7.00;;
1404;SDS011;697;51.114;6.542;2023-06-22T03:50:42;9.37;;;8.53;;
1404;SDS011;697;51.114;6.542;2023-06-22T03:53:09;7.70;;;7.00;;
1404;SDS011;697;51.114;6.542;2023-06-22T03:55:36;8.83;;;7.43;;
1404;SDS011;697;51.114;6.542;2023-06-22T03:58:06;7.27;;;6.63;;
1404;SDS011;697;51.114;6.542;2023-06-22T04:00:34;9.33;;;8.20;;
1404;SDS011;697;51.114;6.542;2023-06-22T04:03:01;8.70;;;7.87;;
1404;SDS011;697;51.114;6.542;2023-06-22T04:05:30;8.03;;;7.30;;
1404;SDS011;697;51.114;6.542;2023-06-22T04:07:56;9.53;;;8.73;;
1404;SDS011;697;51.114;6.542;2023-06-22T04:10:23;10.30;;;9.40;;
1404;SDS011;697;51.114;6.542;2023-06-22T04:12:50;9.13;;;8.20;;
1404;SDS011;697;51.114;6.542;2023-06-22T04:15:17;12.67;;;8.43;;
1404;SDS011;697;51.114;6.542;2023-06-22T04:17:44;10.90;;;8.67;;
1404;SDS011;697;51.114;6.542;2023-06-22T04:20:11;9.63;;;8.73;;
1404;SDS011;697;51.114;6.542;2023-06-22T04:22:39;10.17;;;9.17;;
1404;SDS011;697;51.114;6.542;2023-06-22T04:25:06;11.93;;;8.33;;
1404;SDS011;697;51.114;6.542;2023-06-22T04:27:33;10.77;;;9.67;;
1404;SDS011;697;51.114;6.542;2023-06-22T04:30:02;12.80;;;11.20;;
1404;SDS011;697;51.114;6.542;2023-06-22T04:32:29;12.60;;;11.00;;
1404;SDS011;697;51.114;6.542;2023-06-22T04:34:56;14.40;;;11.30;;
1404;SDS011;697;51.114;6.542;2023-06-22T04:37:25;12.27;;;10.23;;
1404;SDS011;697;51.114;6.542;2023-06-22T04:39:53;12.63;;;10.30;;
1404;SDS011;697;51.114;6.542;2023-06-22T04:42:20;11.13;;;9.83;;
1404;SDS011;697;51.114;6.542;2023-06-22T04:44:47;12.83;;;10.90;;
1404;SDS011;697;51.114;6.542;2023-06-22T04:47:14;12.90;;;11.77;;
1404;SDS011;697;51.114;6.542;2023-06-22T04:49:40;18.10;;;10.80;;
1404;SDS011;697;51.114;6.542;2023-06-22T04:52:09;12.77;;;11.40;;
1404;SDS011;697;51.114;6.542;2023-06-22T04:54:38;12.90;;;11.10;;
1404;SDS011;697;51.114;6.542;2023-06-22T04:57:14;11.83;;;10.83;;
1404;SDS011;697;51.114;6.542;2023-06-22T04:59:41;13.83;;;10.80;;
1404;SDS011;697;51.114;6.542;2023-06-22T05:02:08;12.27;;;11.17;;
1404;SDS011;697;51.114;6.542;2023-06-22T05:04:34;11.30;;;9.30;;
1404;SDS011;697;51.114;6.542;2023-06-22T05:07:03;12.03;;;11.00;;
1404;SDS011;697;51.114;6.542;2023-06-22T05:09:31;15.33;;;12.07;;
1404;SDS011;697;51.114;6.542;2023-06-22T05:11:58;12.63;;;11.43;;
1404;SDS011;697;51.114;6.542;2023-06-22T05:14:28;11.50;;;10.43;;
1404;SDS011;697;51.114;6.542;2023-06-22T05:16:56;12.57;;;10.03;;
1404;SDS011;697;51.114;6.542;2023-06-22T05:19:24;13.17;;;11.87;;
1404;SDS011;697;51.114;6.542;2023-06-22T05:21:58;11.90;;;10.70;;
1404;SDS011;697;51.114;6.542;2023-06-22T05:24:25;12.00;;;11.00;;
1404;SDS011;697;51.114;6.542;2023-06-22T05:26:52;13.27;;;11.97;;
1404;SDS011;697;51.114;6.542;2023-06-22T05:29:18;14.43;;;11.33;;
1404;SDS011;697;51.114;6.542;2023-06-22T05:31:48;12.90;;;11.80;;
1404;SDS011;697;51.114;6.542;2023-06-22T05:34:15;13.03;;;11.53;;
1404;SDS011;697;51.114;6.542;2023-06-22T05:36:41;13.50;;;12.20;;
1404;SDS011;697;51.114;6.542;2023-06-22T05:39:12;13.10;;;11.63;;
1404;SDS011;697;51.114;6.542;2023-06-22T05:41:40;12.80;;;11.60;;
1404;SDS011;697;51.114;6.542;2023-06-22T05:44:08;12.47;;;11.37;;
1404;SDS011;697;51.114;6.542;2023-06-22T05:46:35;12.93;;;11.63;;
1404;SDS011;697;51.114;6.542;2023-06-22T05:49:03;14.00;;;12.70;;
1404;SDS011;697;51.114;6.542;2023-06-22T05:51:30;15.07;;;11.90;;
1404;SDS011;697;51.114;6.542;2023-06-22T05:53:57;12.53;;;11.33;;
1404;SDS011;697;51.114;6.542;2023-06-22T05:56:23;13.87;;;10.33;;
1404;SDS011;697;51.114;6.542;2023-06-22T05:58:50;13.33;;;12.13;;
1404;SDS011;697;51.114;6.542;2023-06-22T06:01:17;14.37;;;12.37;;
1404;SDS011;697;51.114;6.542;2023-06-22T06:03:44;13.10;;;11.60;;
1404;SDS011;697;51.114;6.542;2023-06-22T06:06:12;11.70;;;10.60;;
1404;SDS011;697;51.114;6.542;2023-06-22T06:08:39;17.30;;;12.83;;
1404;SDS011;697;51.114;6.542;2023-06-22T06:11:06;12.67;;;11.37;;
1404;SDS011;697;51.114;6.542;2023-06-22T06:13:32;13.47;;;12.27;;
1404;SDS011;697;51.114;6.542;2023-06-22T06:15:59;12.10;;;10.63;;
1404;SDS011;697;51.114;6.542;2023-06-22T06:18:26;12.83;;;11.63;;
1404;SDS011;697;51.114;6.542;2023-06-22T06:20:53;13.40;;;12.00;;
1404;SDS011;697;51.114;6.542;2023-06-22T06:23:21;11.90;;;10.70;;
1404;SDS011;697;51.114;6.542;2023-06-22T06:25:48;13.20;;;11.90;;
1404;SDS011;697;51.114;6.542;2023-06-22T06:28:14;13.03;;;11.83;;
1404;SDS011;697;51.114;6.542;2023-06-22T06:30:41;13.20;;;12.00;;
1404;SDS011;697;51.114;6.542;2023-06-22T06:33:08;13.53;;;12.13;;
1404;SDS011;697;51.114;6.542;2023-06-22T06:35:35;14.10;;;12.83;;
1404;SDS011;697;51.114;6.542;2023-06-22T06:38:02;13.50;;;12.10;;
1404;SDS011;697;51.114;6.542;2023-06-22T06:40:31;14.00;;;12.70;;
1404;SDS011;697;51.114;6.542;2023-06-22T06:42:57;15.00;;;13.50;;
1404;SDS011;697;51.114;6.542;2023-06-22T06:45:24;15.77;;;14.17;;
1404;SDS011;697;51.114;6.542;2023-06-22T06:47:53;15.77;;;14.10;;
1404;SDS011;697;51.114;6.542;2023-06-22T06:50:20;17.80;;;16.10;;
1404;SDS011;697;51.114;6.542;2023-06-22T06:52:47;18.73;;;16.33;;
1404;SDS011;697;51.114;6.542;2023-06-22T06:55:15;22.60;;;16.03;;
1404;SDS011;697;51.114;6.542;2023-06-22T06:57:44;13.70;;;12.43;;
1404;SDS011;697;51.114;6.542;2023-06-22T07:00:13;17.50;;;15.90;;
1404;SDS011;697;51.114;6.542;2023-06-22T07:02:42;15.90;;;14.60;;
1404;SDS011;697;51.114;6.542;2023-06-22T07:05:09;13.93;;;12.63;;
1404;SDS011;697;51.114;6.542;2023-06-22T07:07:36;13.33;;;11.37;;
1404;SDS011;697;51.114;6.542;2023-06-22T07:10:04;14.67;;;13.43;;
1404;SDS011;697;51.114;6.542;2023-06-22T07:12:32;13.23;;;11.97;;
1404;SDS011;697;51.114;6.542;2023-06-22T07:15:02;13.30;;;12.20;;
1404;SDS011;697;51.114;6.542;2023-06-22T07:17:29;13.80;;;12.60;;
1404;SDS011;697;51.114;6.542;2023-06-22T07:19:56;13.67;;;12.47;;
1404;SDS011;697;51.114;6.542;2023-06-22T07:22:23;15.13;;;13.83;;
1404;SDS011;697;51.114;6.542;2023-06-22T07:24:50;13.23;;;11.87;;
1404;SDS011;697;51.114;6.542;2023-06-22T07:27:17;14.03;;;12.80;;
1404;SDS011;697;51.114;6.542;2023-06-22T07:29:44;11.70;;;10.60;;
1404;SDS011;697;51.114;6.542;2023-06-22T07:32:13;12.60;;;11.50;;
1404;SDS011;697;51.114;6.542;2023-06-22T07:34:39;11.23;;;10.13;;
1404;SDS011;697;51.114;6.542;2023-06-22T07:37:06;13.30;;;12.10;;
1404;SDS011;697;51.114;6.542;2023-06-22T07:39:33;13.20;;;11.90;;
1404;SDS011;697;51.114;6.542;2023-06-22T07:42:00;12.87;;;11.70;;
1404;SDS011;697;51.114;6.542;2023-06-22T07:44:27;11.13;;;9.80;;
1404;SDS011;697;51.114;6.542;2023-06-22T07:46:53;12.80;;;11.80;;
1404;SDS011;697;51.114;6.542;2023-06-22T07:49:22;12.73;;;11.53;;
1404;SDS011;697;51.114;6.542;2023-06-22T07:51:48;12.53;;;11.33;;
1404;SDS011;697;51.114;6.542;2023-06-22T07:54:15;11.40;;;10.30;;
1404;SDS011;697;51.114;6.542;2023-06-22T07:56:42;10.97;;;9.83;;
1404;SDS011;697;51.114;6.542;2023-06-22T07:59:09;10.47;;;9.00;;
1404;SDS011;697;51.114;6.542;2023-06-22T08:01:36;9.33;;;8.63;;
1404;SDS011;697;51.114;6.542;2023-06-22T08:04:02;11.67;;;10.50;;
1404;SDS011;697;51.114;6.542;2023-06-22T08:06:32;13.50;;;10.47;;
1404;SDS011;697;51.114;6.542;2023-06-22T08:08:59;10.60;;;8.63;;
1404;SDS011;697;51.114;6.542;2023-06-22T08:11:26;11.20;;;10.20;;
1404;SDS011;697;51.114;6.542;2023-06-22T08:13:53;8.63;;;7.80;;
1404;SDS011;697;51.114;6.542;2023-06-22T08:16:20;12.40;;;10.63;;
1404;SDS011;697;51.114;6.542;2023-06-22T08:18:47;11.03;;;10.03;;
1404;SDS011;697;51.114;6.542;2023-06-22T08:21:14;11.20;;;10.03;;
1404;SDS011;697;51.114;6.542;2023-06-22T08:23:42;10.17;;;9.13;;
1404;SDS011;697;51.114;6.542;2023-06-22T08:26:09;9.80;;;8.80;;
1404;SDS011;697;51.114;6.542;2023-06-22T08:28:36;10.67;;;9.60;;
1404;SDS011;697;51.114;6.542;2023-06-22T08:31:02;7.87;;;7.27;;
1404;SDS011;697;51.114;6.542;2023-06-22T08:33:29;10.30;;;9.20;;
1404;SDS011;697;51.114;6.542;2023-06-22T08:35:57;10.33;;;7.80;;
1404;SDS011;697;51.114;6.542;2023-06-22T08:38:24;9.13;;;8.33;;
1404;SDS011;697;51.114;6.542;2023-06-22T08:40:52;8.07;;;7.47;;
1404;SDS011;697;51.114;6.542;2023-06-22T08:43:19;8.40;;;7.60;;
1404;SDS011;697;51.114;6.542;2023-06-22T08:45:46;8.97;;;7.50;;
1404;SDS011;697;51.114;6.542;2023-06-22T08:48:13;6.50;;;5.87;;
1404;SDS011;697;51.114;6.542;2023-06-22T08:50:40;7.90;;;7.00;;
1404;SDS011;697;51.114;6.542;2023-06-22T08:53:06;7.37;;;6.77;;
1404;SDS011;697;51.114;6.542;2023-06-22T08:55:33;7.60;;;6.47;;
1404;SDS011;697;51.114;6.542;2023-06-22T08:58:01;7.83;;;7.23;;
1404;SDS011;697;51.114;6.542;2023-06-22T09:00:29;7.73;;;7.13;;
1404;SDS011;697;51.114;6.542;2023-06-22T09:02:59;7.17;;;6.60;;
1404;SDS011;697;51.114;6.542;2023-06-22T09:05:26;6.73;;;6.23;;
1404;SDS011;697;51.114;6.542;2023-06-22T09:07:53;7.43;;;6.73;;
1404;SDS011;697;51.114;6.542;2023-06-22T09:10:20;7.43;;;6.73;;
1404;SDS011;697;51.114;6.542;2023-06-22T09:12:47;7.50;;;6.90;;
1404;SDS011;697;51.114;6.542;2023-06-22T09:15:16;8.07;;;7.27;;
1404;SDS011;697;51.114;6.542;2023-06-22T09:17:43;7.97;;;7.27;;
1404;SDS011;697;51.114;6.542;2023-06-22T09:20:11;7.40;;;6.80;;
1404;SDS011;697;51.114;6.542;2023-06-22T09:22:38;7.90;;;7.20;;
1404;SDS011;697;51.114;6.542;2023-06-22T09:25:05;7.90;;;7.13;;
1404;SDS011;697;51.114;6.542;2023-06-22T09:27:32;6.67;;;6.17;;
1404;SDS011;697;51.114;6.542;2023-06-22T09:30:00;7.90;;;7.30;;
1404;SDS011;697;51.114;6.542;2023-06-22T09:32:29;6.93;;;6.33;;
1404;SDS011;697;51.114;6.542;2023-06-22T09:34:56;7.50;;;6.80;;
1404;SDS011;697;51.114;6.542;2023-06-22T09:37:23;8.00;;;7.30;;
1404;SDS011;697;51.114;6.542;2023-06-22T09:39:50;7.77;;;7.17;;
1404;SDS011;697;51.114;6.542;2023-06-22T09:42:16;7.57;;;6.97;;
1404;SDS011;697;51.114;6.542;2023-06-22T09:44:43;7.03;;;6.53;;
1404;SDS011;697;51.114;6.542;2023-06-22T09:47:10;7.67;;;7.00;;
1404;SDS011;697;51.114;6.542;2023-06-22T09:49:38;7.83;;;7.23;;
1404;SDS011;697;51.114;6.542;2023-06-22T09:52:05;7.60;;;7.10;;
1404;SDS011;697;51.114;6.542;2023-06-22T09:54:33;7.63;;;6.93;;
1404;SDS011;697;51.114;6.542;2023-06-22T09:56:59;6.90;;;6.40;;
1404;SDS011;697;51.114;6.542;2023-06-22T09:59:26;6.73;;;6.23;;
1404;SDS011;697;51.114;6.542;2023-06-22T10:01:53;6.67;;;6.17;;
1404;SDS011;697;51.114;6.542;2023-06-22T10:04:20;7.70;;;7.00;;
1404;SDS011;697;51.114;6.542;2023-06-22T10:06:48;7.27;;;6.77;;
1404;SDS011;697;51.114;6.542;2023-06-22T10:09:15;7.00;;;6.50;;
1404;SDS011;697;51.114;6.542;2023-06-22T10:11:42;9.00;;;7.33;;
1404;SDS011;697;51.114;6.542;2023-06-22T10:14:08;8.27;;;7.47;;
1404;SDS011;697;51.114;6.542;2023-06-22T10:16:35;6.73;;;6.20;;
1404;SDS011;697;51.114;6.542;2023-06-22T10:19:02;8.13;;;7.40;;
1404;SDS011;697;51.114;6.542;2023-06-22T10:21:29;8.77;;;8.07;;
1404;SDS011;697;51.114;6.542;2023-06-22T10:23:58;11.40;;;8.73;;
1404;SDS011;697;51.114;6.542;2023-06-22T10:26:30;7.70;;;7.10;;
1404;SDS011;697;51.114;6.542;2023-06-22T10:28:58;7.87;;;7.10;;
1404;SDS011;697;51.114;6.542;2023-06-22T10:31:24;9.93;;;7.43;;
1404;SDS011;697;51.114;6.542;2023-06-22T10:33:52;10.20;;;8.30;;
1404;SDS011;697;51.114;6.542;2023-06-22T10:36:19;9.73;;;8.83;;
1404;SDS011;697;51.114;6.542;2023-06-22T10:38:46;12.43;;;9.60;;
1404;SDS011;697;51.114;6.542;2023-06-22T10:41:14;12.73;;;9.00;;
1404;SDS011;697;51.114;6.542;2023-06-22T10:43:42;12.67;;;10.53;;
1404;SDS011;697;51.114;6.542;2023-06-22T10:46:09;10.23;;;9.00;;
1404;SDS011;697;51.114;6.542;2023-06-22T10:48:36;10.33;;;9.23;;
1404;SDS011;697;51.114;6.542;2023-06-22T10:51:03;9.87;;;8.87;;
1404;SDS011;697;51.114;6.542;2023-06-22T10:53:30;11.77;;;10.67;;
1404;SDS011;697;51.114;6.542;2023-06-22T10:55:58;12.80;;;10.93;;
1404;SDS011;697;51.114;6.542;2023-06-22T10:58:26;12.40;;;11.17;;
1404;SDS011;697;51.114;6.542;2023-06-22T11:00:52;10.13;;;9.17;;
1404;SDS011;697;51.114;6.542;2023-06-22T11:03:19;10.87;;;9.77;;
1404;SDS011;697;51.114;6.542;2023-06-22T11:05:46;13.17;;;9.47;;
1404;SDS011;697;51.114;6.542;2023-06-22T11:08:13;14.47;;;10.83;;
1404;SDS011;697;51.114;6.542;2023-06-22T11:10:40;11.83;;;9.73;;
1404;SDS011;697;51.114;6.542;2023-06-22T11:13:09;12.73;;;10.73;;
1404;SDS011;697;51.114;6.542;2023-06-22T11:15:37;12.40;;;10.03;;
1404;SDS011;697;51.114;6.542;2023-06-22T11:18:04;16.47;;;10.17;;
1404;SDS011;697;51.114;6.542;2023-06-22T11:20:32;13.23;;;11.63;;
1404;SDS011;697;51.114;6.542;2023-06-22T11:23:03;12.03;;;10.87;;
1404;SDS011;697;51.114;6.542;2023-06-22T11:25:30;11.47;;;10.27;;
1404;SDS011;697;51.114;6.542;2023-06-22T11:27:59;15.50;;;10.00;;
1404;SDS011;697;51.114;6.542;2023-06-22T11:30:27;13.47;;;10.33;;
1404;SDS011;697;51.114;6.542;2023-06-22T11:32:56;11.87;;;10.73;;
1404;SDS011;697;51.114;6.542;2023-06-22T11:35:23;11.60;;;10.40;;
1404;SDS011;697;51.114;6.542;2023-06-22T11:37:50;13.70;;;10.67;;
1404;SDS011;697;51.114;6.542;2023-06-22T11:40:17;16.43;;;14.73;;
1404;SDS011;697;51.114;6.542;2023-06-22T11:42:44;15.37;;;13.60;;
1404;SDS011;697;51.114;6.542;2023-06-22T11:45:11;14.33;;;13.00;;
1404;SDS011;697;51.114;6.542;2023-06-22T11:47:39;13.63;;;12.27;;
1404;SDS011;697;51.114;6.542;2023-06-22T11:50:08;14.63;;;13.33;;
1404;SDS011;697;51.114;6.542;2023-06-22T11:52:35;13.90;;;12.73;;
1404;SDS011;697;51.114;6.542;2023-06-22T11:55:02;14.93;;;13.40;;
1404;SDS011;697;51.114;6.542;2023-06-22T11:57:30;14.10;;;12.80;;
1404;SDS011;697;51.114;6.542;2023-06-22T11:59:59;15.50;;;14.03;;
1404;SDS011;697;51.114;6.542;2023-06-22T12:02:25;15.00;;;13.80;;
1404;SDS011;697;51.114;6.542;2023-06-22T12:04:52;14.00;;;12.70;;
1404;SDS011;697;51.114;6.542;2023-06-22T12:07:22;13.10;;;12.00;;
1404;SDS011;697;51.114;6.542;2023-06-22T12:09:49;14.63;;;13.27;;
1404;SDS011;697;51.114;6.542;2023-06-22T12:12:16;14.33;;;13.07;;
1404;SDS011;697;51.114;6.542;2023-06-22T12:14:43;14.20;;;12.97;;
1404;SDS011;697;51.114;6.542;2023-06-22T12:17:10;15.80;;;14.50;;
1404;SDS011;697;51.114;6.542;2023-06-22T12:19:37;15.97;;;14.70;;
1404;SDS011;697;51.114;6.542;2023-06-22T12:22:03;17.53;;;16.07;;
1404;SDS011;697;51.114;6.542;2023-06-22T12:24:32;17.20;;;15.73;;
1404;SDS011;697;51.114;6.542;2023-06-22T12:26:58;15.97;;;14.57;;
1404;SDS011;697;51.114;6.542;2023-06-22T12:29:27;16.53;;;15.07;;
1404;SDS011;697;51.114;6.542;2023-06-22T12:31:54;17.03;;;15.70;;
1404;SDS011;697;51.114;6.542;2023-06-22T12:34:20;19.53;;;17.93;;
1404;SDS011;697;51.114;6.542;2023-06-22T12:36:48;17.37;;;14.67;;
1404;SDS011;697;51.114;6.542;2023-06-22T12:39:14;18.33;;;16.93;;
1404;SDS011;697;51.114;6.542;2023-06-22T12:41:42;16.23;;;14.97;;
1404;SDS011;697;51.114;6.542;2023-06-22T12:44:09;16.13;;;14.83;;
1404;SDS011;697;51.114;6.542;2023-06-22T12:46:36;14.87;;;13.77;;
1404;SDS011;697;51.114;6.542;2023-06-22T12:49:03;18.33;;;16.77;;
1404;SDS011;697;51.114;6.542;2023-06-22T12:51:30;16.93;;;15.47;;
1404;SDS011;697;51.114;6.542;2023-06-22T12:53:59;18.43;;;16.83;;
1404;SDS011;697;51.114;6.542;2023-06-22T12:56:25;17.87;;;16.40;;
1404;SDS011;697;51.114;6.542;2023-06-22T12:58:53;18.63;;;16.93;;
1404;SDS011;697;51.114;6.542;2023-06-22T13:01:20;21.00;;;19.20;;
1404;SDS011;697;51.114;6.542;2023-06-22T13:03:48;20.50;;;18.80;;
1404;SDS011;697;51.114;6.542;2023-06-22T13:06:14;19.87;;;18.27;;
1404;SDS011;697;51.114;6.542;2023-06-22T13:08:41;19.83;;;18.23;;
1404;SDS011;697;51.114;6.542;2023-06-22T13:11:08;17.17;;;15.77;;
1404;SDS011;697;51.114;6.542;2023-06-22T13:13:35;19.80;;;18.10;;
1404;SDS011;697;51.114;6.542;2023-06-22T13:16:03;17.07;;;15.77;;
1404;SDS011;697;51.114;6.542;2023-06-22T13:18:30;19.27;;;17.57;;
1404;SDS011;697;51.114;6.542;2023-06-22T13:20:58;18.83;;;17.43;;
1404;SDS011;697;51.114;6.542;2023-06-22T13:23:25;18.87;;;17.30;;
1404;SDS011;697;51.114;6.542;2023-06-22T13:25:52;22.50;;;20.33;;
1404;SDS011;697;51.114;6.542;2023-06-22T13:28:18;20.33;;;18.77;;
1404;SDS011;697;51.114;6.542;2023-06-22T13:30:46;18.83;;;16.97;;
1404;SDS011;697;51.114;6.542;2023-06-22T13:33:15;21.07;;;19.20;;
1404;SDS011;697;51.114;6.542;2023-06-22T13:35:42;23.57;;;21.67;;
1404;SDS011;697;51.114;6.542;2023-06-22T13:38:09;21.83;;;19.93;;
1404;SDS011;697;51.114;6.542;2023-06-22T13:40:36;23.20;;;21.30;;
1404;SDS011;697;51.114;6.542;2023-06-22T13:43:04;22.47;;;20.57;;
1404;SDS011;697;51.114;6.542;2023-06-22T13:45:31;20.47;;;18.70;;
1404;SDS011;697;51.114;6.542;2023-06-22T13:47:58;20.00;;;18.37;;
1404;SDS011;697;51.114;6.542;2023-06-22T13:50:26;22.13;;;20.13;;
1404;SDS011;697;51.114;6.542;2023-06-22T13:52:54;22.37;;;20.37;;
1404;SDS011;697;51.114;6.542;2023-06-22T13:55:21;21.90;;;20.03;;
1404;SDS011;697;51.114;6.542;2023-06-22T13:57:48;21.43;;;19.70;;
1404;SDS011;697;51.114;6.542;2023-06-22T14:00:16;24.83;;;22.63;;
1404;SDS011;697;51.114;6.542;2023-06-22T14:02:43;24.77;;;22.57;;
1404;SDS011;697;51.114;6.542;2023-06-22T14:05:10;24.10;;;22.10;;
1404;SDS011;697;51.114;6.542;2023-06-22T14:07:38;27.60;;;25.20;;
1404;SDS011;697;51.114;6.542;2023-06-22T14:10:05;24.80;;;22.70;;
1404;SDS011;697;51.114;6.542;2023-06-22T14:12:33;23.80;;;21.67;;
1404;SDS011;697;51.114;6.542;2023-06-22T14:14:59;22.77;;;20.67;;
1404;SDS011;697;51.114;6.542;2023-06-22T14:17:26;23.67;;;21.47;;
1404;SDS011;697;51.114;6.542;2023-06-22T14:19:53;23.93;;;21.83;;
1404;SDS011;697;51.114;6.542;2023-06-22T14:22:20;25.63;;;23.20;;
1404;SDS011;697;51.114;6.542;2023-06-22T14:24:49;24.03;;;22.03;;
1404;SDS011;697;51.114;6.542;2023-06-22T14:27:16;24.37;;;22.20;;
1404;SDS011;697;51.114;6.542;2023-06-22T14:29:43;23.17;;;20.97;;
1404;SDS011;697;51.114;6.542;2023-06-22T14:32:10;23.57;;;21.40;;
1404;SDS011;697;51.114;6.542;2023-06-22T14:34:36;23.27;;;21.30;;
1404;SDS011;697;51.114;6.542;2023-06-22T14:37:05;20.73;;;19.03;;
1404;SDS011;697;51.114;6.542;2023-06-22T14:39:32;25.37;;;23.03;;
1404;SDS011;697;51.114;6.542;2023-06-22T14:42:00;24.63;;;22.30;;
1404;SDS011;697;51.114;6.542;2023-06-22T14:44:28;27.50;;;25.10;;
1404;SDS011;697;51.114;6.542;2023-06-22T14:46:55;25.27;;;23.07;;
1404;SDS011;697;51.114;6.542;2023-06-22T14:49:22;24.90;;;22.70;;
1404;SDS011;697;51.114;6.542;2023-06-22T14:51:49;26.97;;;24.57;;
1404;SDS011;697;51.114;6.542;2023-06-22T14:54:16;26.27;;;23.93;;
1404;SDS011;697;51.114;6.542;2023-06-22T14:56:42;24.50;;;22.40;;
1404;SDS011;697;51.114;6.542;2023-06-22T14:59:11;27.30;;;23.73;;
1404;SDS011;697;51.114;6.542;2023-06-22T15:01:38;24.67;;;22.47;;
1404;SDS011;697;51.114;6.542;2023-06-22T15:04:05;24.10;;;21.80;;
1404;SDS011;697;51.114;6.542;2023-06-22T15:06:32;24.47;;;22.30;;
1404;SDS011;697;51.114;6.542;2023-06-22T15:08:58;27.90;;;25.53;;
1404;SDS011;697;51.114;6.542;2023-06-22T15:11:25;27.10;;;24.80;;
1404;SDS011;697;51.114;6.542;2023-06-22T15:13:52;28.43;;;25.90;;
1404;SDS011;697;51.114;6.542;2023-06-22T15:16:20;26.50;;;24.07;;